AXY172 SCIP-NSFA
Flight info
| Callsign | AXY172 |
|---|---|
| Flight time | N/A |
| Altitude | 36000 |
| Route | HANPI1A HANPI UL348 SAURI/N0477F380 UL348 SAMEP/N0476F400 UL348 TAF G224 TUT B577 PONAT PONAT2B |
| Aircraft | A343/H-SDE2E3FGHIJ4J5M1RWXY/LB1D1 |
Departure
| Time | 2026-04-12 06:52 |
|---|---|
| Airport | Mataveri International Airport (SCIP) |
Arrival
| Time | N/A |
|---|---|
| Airport | Faleolo International Airport (NSFA) |
| Time | Latitude | Longitude | Altitude | Speed | Heading |
|---|---|---|---|---|---|
| 2026-04-12 06:25 | -27.16000 | -109.42865 | 153 ft | 0 kts | 298° |
| 2026-04-12 06:46 | -27.15999 | -109.42868 | 153 ft | 0 kts | 291° |
| 2026-04-12 06:47 | -27.16003 | -109.42877 | 153 ft | 1 kts | 250° |
| 2026-04-12 06:47 | -27.16006 | -109.42880 | 153 ft | 1 kts | 236° |
| 2026-04-12 06:47 | -27.16024 | -109.42880 | 154 ft | 2 kts | 174° |
| 2026-04-12 06:47 | -27.16032 | -109.42877 | 155 ft | 1 kts | 165° |
| 2026-04-12 06:48 | -27.16049 | -109.42871 | 156 ft | 3 kts | 162° |
| 2026-04-12 06:48 | -27.16075 | -109.42865 | 157 ft | 4 kts | 174° |
| 2026-04-12 06:48 | -27.16107 | -109.42871 | 160 ft | 6 kts | 196° |
| 2026-04-12 06:48 | -27.16138 | -109.42918 | 162 ft | 10 kts | 270° |
| 2026-04-12 06:49 | -27.16096 | -109.43027 | 161 ft | 20 kts | 297° |
| 2026-04-12 06:49 | -27.16023 | -109.43187 | 161 ft | 24 kts | 296° |
| 2026-04-12 06:49 | -27.15947 | -109.43356 | 159 ft | 25 kts | 297° |
| 2026-04-12 06:49 | -27.15872 | -109.43517 | 158 ft | 18 kts | 300° |
| 2026-04-12 06:50 | -27.15806 | -109.43576 | 158 ft | 9 kts | 330° |
| 2026-04-12 06:50 | -27.15786 | -109.43608 | 158 ft | 4 kts | 271° |
| 2026-04-12 06:50 | -27.15809 | -109.43624 | 158 ft | 4 kts | 171° |
| 2026-04-12 06:50 | -27.15831 | -109.43605 | 158 ft | 4 kts | 131° |
| 2026-04-12 06:51 | -27.15841 | -109.43585 | 161 ft | 0 kts | 116° |
| 2026-04-12 06:51 | -27.15884 | -109.43489 | 158 ft | 38 kts | 116° |
| 2026-04-12 06:51 | -27.16096 | -109.43027 | 161 ft | 93 kts | 117° |
| 2026-04-12 06:52 | -27.16461 | -109.42225 | 161 ft | 136 kts | 117° |
| 2026-04-12 06:52 | -27.16937 | -109.41177 | 394 ft | 153 kts | 117° |
| 2026-04-12 06:52 | -27.17422 | -109.40129 | 952 ft | 151 kts | 116° |
| 2026-04-12 06:52 | -27.17903 | -109.39055 | 1380 ft | 161 kts | 114° |
| 2026-04-12 06:53 | -27.18448 | -109.37858 | 1612 ft | 189 kts | 122° |
| 2026-04-12 06:53 | -27.19601 | -109.36957 | 1741 ft | 226 kts | 166° |
| 2026-04-12 06:53 | -27.21227 | -109.37179 | 2164 ft | 251 kts | 207° |
| 2026-04-12 06:53 | -27.22454 | -109.38613 | 2859 ft | 265 kts | 246° |
| 2026-04-12 06:54 | -27.22804 | -109.40666 | 3614 ft | 273 kts | 267° |
| 2026-04-12 06:54 | -27.22757 | -109.42809 | 4502 ft | 274 kts | 274° |
| 2026-04-12 06:54 | -27.22585 | -109.44950 | 5368 ft | 277 kts | 275° |
| 2026-04-12 06:54 | -27.22377 | -109.47104 | 6274 ft | 277 kts | 276° |
| 2026-04-12 06:55 | -27.22150 | -109.49256 | 7146 ft | 278 kts | 276° |
| 2026-04-12 06:55 | -27.22074 | -109.49959 | 7397 ft | 279 kts | 276° |
| 2026-04-12 06:55 | -27.21876 | -109.51756 | 8060 ft | 281 kts | 277° |
| 2026-04-12 06:55 | -27.21627 | -109.53949 | 8848 ft | 284 kts | 277° |
| 2026-04-12 06:56 | -27.21371 | -109.56171 | 9612 ft | 288 kts | 277° |
| 2026-04-12 06:56 | -27.21110 | -109.58416 | 10352 ft | 292 kts | 277° |
| 2026-04-12 06:56 | -27.20845 | -109.60697 | 10770 ft | 307 kts | 277° |
| 2026-04-12 06:56 | -27.20561 | -109.63140 | 11053 ft | 325 kts | 277° |
| 2026-04-12 06:57 | -27.20261 | -109.65724 | 11329 ft | 342 kts | 277° |
| 2026-04-12 06:57 | -27.20046 | -109.68446 | 11589 ft | 358 kts | 272° |
| 2026-04-12 06:57 | -27.19928 | -109.71296 | 11852 ft | 372 kts | 272° |
| 2026-04-12 06:57 | -27.19822 | -109.74239 | 12276 ft | 381 kts | 272° |
| 2026-04-12 06:58 | -27.19714 | -109.77237 | 12795 ft | 387 kts | 272° |
| 2026-04-12 06:58 | -27.19602 | -109.80279 | 13322 ft | 392 kts | 272° |
| 2026-04-12 06:58 | -27.19486 | -109.83373 | 13863 ft | 396 kts | 272° |
| 2026-04-12 06:58 | -27.19369 | -109.86485 | 14379 ft | 400 kts | 271° |
| 2026-04-12 06:59 | -27.19250 | -109.89581 | 14890 ft | 403 kts | 271° |
| 2026-04-12 06:59 | -27.19127 | -109.92751 | 15391 ft | 407 kts | 271° |
| 2026-04-12 06:59 | -27.19004 | -109.95940 | 15896 ft | 411 kts | 271° |
| 2026-04-12 07:00 | -27.18749 | -110.02411 | 16943 ft | 418 kts | 271° |
| 2026-04-12 07:00 | -27.18619 | -110.05677 | 17484 ft | 421 kts | 271° |
| 2026-04-12 07:00 | -27.18487 | -110.08983 | 17997 ft | 425 kts | 271° |
| 2026-04-12 07:00 | -27.18354 | -110.12312 | 18499 ft | 429 kts | 271° |
| 2026-04-12 07:01 | -27.18219 | -110.15670 | 18925 ft | 433 kts | 271° |
| 2026-04-12 07:01 | -27.18081 | -110.19063 | 19381 ft | 436 kts | 271° |
| 2026-04-12 07:01 | -27.17941 | -110.22471 | 19825 ft | 438 kts | 271° |
| 2026-04-12 07:01 | -27.17800 | -110.25901 | 20266 ft | 441 kts | 271° |
| 2026-04-12 07:02 | -27.17657 | -110.29355 | 20703 ft | 444 kts | 271° |
| 2026-04-12 07:02 | -27.17513 | -110.32827 | 21136 ft | 447 kts | 271° |
| 2026-04-12 07:02 | -27.17367 | -110.36326 | 21562 ft | 450 kts | 272° |
| 2026-04-12 07:02 | -27.17219 | -110.39843 | 21983 ft | 452 kts | 272° |
| 2026-04-12 07:03 | -27.17069 | -110.43392 | 22405 ft | 455 kts | 272° |
| 2026-04-12 07:03 | -27.16917 | -110.46956 | 22812 ft | 458 kts | 272° |
| 2026-04-12 07:03 | -27.16759 | -110.50490 | 23180 ft | 462 kts | 273° |
| 2026-04-12 07:03 | -27.16325 | -110.54078 | 23576 ft | 465 kts | 281° |
| 2026-04-12 07:04 | -27.15609 | -110.57638 | 23945 ft | 468 kts | 283° |
| 2026-04-12 07:04 | -27.14843 | -110.61200 | 24264 ft | 471 kts | 283° |
| 2026-04-12 07:04 | -27.14067 | -110.64790 | 24588 ft | 473 kts | 283° |
| 2026-04-12 07:04 | -27.13293 | -110.68384 | 24913 ft | 476 kts | 283° |
| 2026-04-12 07:05 | -27.12514 | -110.72008 | 25243 ft | 478 kts | 282° |
| 2026-04-12 07:05 | -27.11733 | -110.75648 | 25572 ft | 480 kts | 282° |
| 2026-04-12 07:05 | -27.10947 | -110.79307 | 25909 ft | 483 kts | 282° |
| 2026-04-12 07:05 | -27.10155 | -110.82992 | 26217 ft | 486 kts | 282° |
| 2026-04-12 07:06 | -27.09361 | -110.86686 | 26532 ft | 488 kts | 282° |
| 2026-04-12 07:06 | -27.08563 | -110.90391 | 26856 ft | 490 kts | 282° |
| 2026-04-12 07:06 | -27.07768 | -110.94077 | 27166 ft | 493 kts | 282° |
| 2026-04-12 07:06 | -27.06958 | -110.97826 | 27471 ft | 495 kts | 282° |
| 2026-04-12 07:07 | -27.06145 | -111.01586 | 27774 ft | 497 kts | 282° |
| 2026-04-12 07:07 | -27.05325 | -111.05376 | 28064 ft | 499 kts | 282° |
| 2026-04-12 07:07 | -27.04499 | -111.09183 | 28355 ft | 502 kts | 282° |
| 2026-04-12 07:07 | -27.03673 | -111.12989 | 28640 ft | 503 kts | 282° |
| 2026-04-12 07:08 | -27.02839 | -111.16823 | 28921 ft | 505 kts | 282° |
| 2026-04-12 07:08 | -27.02016 | -111.20608 | 29184 ft | 507 kts | 282° |
| 2026-04-12 07:08 | -27.01177 | -111.24457 | 29452 ft | 510 kts | 282° |
| 2026-04-12 07:08 | -27.00334 | -111.28317 | 29794 ft | 509 kts | 282° |
| 2026-04-12 07:09 | -26.99490 | -111.32173 | 30194 ft | 508 kts | 281° |
| 2026-04-12 07:09 | -26.98648 | -111.36016 | 30528 ft | 508 kts | 281° |
| 2026-04-12 07:09 | -26.97805 | -111.39862 | 30821 ft | 507 kts | 281° |
| 2026-04-12 07:09 | -26.96962 | -111.43704 | 31110 ft | 507 kts | 281° |
| 2026-04-12 07:10 | -26.96117 | -111.47543 | 31334 ft | 509 kts | 281° |
| 2026-04-12 07:10 | -26.95267 | -111.51408 | 31542 ft | 510 kts | 281° |
| 2026-04-12 07:10 | -26.94417 | -111.55264 | 31833 ft | 510 kts | 281° |
| 2026-04-12 07:10 | -26.93566 | -111.59119 | 32132 ft | 509 kts | 281° |
| 2026-04-12 07:11 | -26.92777 | -111.62980 | 32403 ft | 507 kts | 278° |
| 2026-04-12 07:11 | -26.92181 | -111.66869 | 32683 ft | 506 kts | 276° |
| 2026-04-12 07:11 | -26.91694 | -111.70770 | 32962 ft | 505 kts | 275° |
| 2026-04-12 07:11 | -26.91260 | -111.74674 | 33224 ft | 504 kts | 274° |
| 2026-04-12 07:12 | -26.90842 | -111.78575 | 33485 ft | 504 kts | 274° |
| 2026-04-12 07:12 | -26.90420 | -111.82480 | 33747 ft | 504 kts | 274° |
| 2026-04-12 07:12 | -26.89990 | -111.86373 | 34001 ft | 504 kts | 274° |
| 2026-04-12 07:12 | -26.89549 | -111.90270 | 34276 ft | 502 kts | 274° |
| 2026-04-12 07:13 | -26.89103 | -111.94143 | 34526 ft | 501 kts | 274° |
| 2026-04-12 07:13 | -26.88651 | -111.98018 | 34693 ft | 502 kts | 275° |
| 2026-04-12 07:13 | -26.88197 | -112.01896 | 34857 ft | 503 kts | 275° |
| 2026-04-12 07:13 | -26.87740 | -112.05787 | 35049 ft | 503 kts | 275° |
| 2026-04-12 07:14 | -26.87281 | -112.09680 | 35219 ft | 504 kts | 275° |
| 2026-04-12 07:14 | -26.86821 | -112.13569 | 35389 ft | 504 kts | 275° |
| 2026-04-12 07:14 | -26.86360 | -112.17462 | 35573 ft | 504 kts | 275° |
| 2026-04-12 07:14 | -26.85904 | -112.21306 | 35733 ft | 505 kts | 275° |
| 2026-04-12 07:15 | -26.85441 | -112.25204 | 35890 ft | 505 kts | 275° |
| 2026-04-12 07:15 | -26.84974 | -112.29116 | 36062 ft | 506 kts | 275° |
| 2026-04-12 07:15 | -26.84508 | -112.33024 | 36195 ft | 507 kts | 275° |
| 2026-04-12 07:15 | -26.84038 | -112.36949 | 36226 ft | 509 kts | 275° |
| 2026-04-12 07:16 | -26.83096 | -112.44781 | 36223 ft | 506 kts | 275° |
| 2026-04-12 07:16 | -26.82153 | -112.52589 | 36222 ft | 506 kts | 275° |
| 2026-04-12 07:17 | -26.81205 | -112.60407 | 36222 ft | 506 kts | 275° |
| 2026-04-12 07:17 | -26.80254 | -112.68211 | 36222 ft | 506 kts | 275° |
| 2026-04-12 07:18 | -26.79303 | -112.75975 | 36222 ft | 506 kts | 275° |